BRIO2: Bridgeport 4E

Data processed at Tue Apr 11 2017 23:52


All information presented herein is the property of the government of the United States of America and may be revised or deleted at any time without prior notice.
Dissemination of this information without the expressed written consent of the Public Affairs Office, Tulsa District U.S. Army Corps of Engineers is strictly prohibited.
These data are gathered electronically and, as presented, have not undergone any form of quality control. These data are not guaranteed to be valid or correct.
Go to home page.
Go to station list.
Go to station map.

Upstream stations:

Downstream station:
Previous Day
Next Day
Current Day
    
SHEF ID:       BRIO2     Canadian River at Bridgeport, OK
STATION TYPE:  

                STAGE  RIV-FLOW  BAT-LOAD
                   ft       cfs      volt
              Ccp-Rev   Ccp-Rev   Ccp-Rev
(US/Central)
04/11 00:00     11.33       807     12.73
04/11 01:00     11.32       801     12.65
04/11 02:00     11.37       832     12.65
04/11 03:00     11.35       819     12.65
04/11 04:00     11.34       813     12.65
04/11 05:00     11.33       807     12.57
04/11 06:00     11.34       813     12.57
04/11 07:00     11.29       782     12.57
04/11 08:00     11.32       801     13.21
04/11 09:00     11.35       819     13.29
04/11 10:00     11.25       758     13.37
04/11 11:00     11.28       776     13.37
04/11 12:00     11.26       764     13.37
04/11 13:00     11.26       764     13.29
04/11 14:00     11.26       764     13.21
04/11 15:00     11.29       782     13.13
04/11 16:00     11.31       795     13.05
04/11 17:00     11.22       741     13.05
04/11 18:00     11.25       758     13.05
04/11 19:00     11.32       801     13.05
04/11 20:00     11.34       813     12.97
04/11 21:00     11.27       770     12.89
04/11 22:00     11.27       770     12.81
04/11 23:00     11.27       770     12.81